OITK  Khoy Airport

Add Bookmark

Khoy, Iran

Status IATA
Operational KHY
Latitude Longitude
38° 25' 39" N 44° 58' 24" E
38.427502 44.973598
Local (DST + 5) UTC (GMT + 4)
Nov 26, 2014 07:20 Nov 26, 2014 03:50
Sunrise-Sunset Local UTC
Begin Civil Twilight 06:53 03:23
Sunrise 07:22 03:52
Sunset 05:12 13:42
End Civil Twilight 05:41 14:11

Current Weather

METAR Observed VFR
OITK 251100Z 05006KT 9999 SCT020 BKN035 OVC080 04/01 Q1018 Tue, Nov 25, 2014 @ 11:00 UTC
(16 Hours, 50 Minutes ago)
Visual Flight Rules
Wind Visibility Clouds Conditions
050° at 6 knots (11 kph) 10 km or more
  • Scattered at 2,000' AGL
  • Broken at 3,500' AGL
  • Overcast at 8,000' AGL
  • No significant weather
Temperatures Readings Precipitation
Current Temp 4°C (39°F)
Dewpoint 1°C (34°F)
Humidity 81%
Altimeter 30.06"Hg
Sea Level Pressure 1018mb
Field Elevation 3631.89'
None Recorded

Additional weather within a 92.6km radius of OITK

Map ICAO Location
OITR 84.8km S (174°)

24 Hour Weather History

Loading
-

24 Hour Weather Graphs

Loading
-

CheckWX.com is intended as a tool to help pilots better visualize weather data. It is not intended as a substitute for an official weather briefing obtained from a Flight Service Station. CheckWX.com does not meet the FAA requirements for an official pre-flight weather briefing. Therefore, it's important that pilots still call and obtain an official FSS pre-flight weather briefing.